Glens Falls, New York
Current Conditions -  °F | °C
As of 1:53 AM on Tuesday 21 Oct 2014 (Local Time) from KGFL Reporting Station
Overcast Overcast  
Wind Chill: 45°   Ceiling: 10000
Heat Index: 45°   Visibility: 10mi
Dew Point: 40°   Wind: 0mph
Humidity: 82%   Direction: NA
Pressure: 29.92"   Gusts: NA
Location:  43.31°N, 73.64°W
Report Text: KGFL 210553Z AUTO 00000KT 10SM FEW060 OVC100 07/04 A2992 RMK AO2 RAB24E33 SLP138 P0000 60000 T00720044 10100 20067 58005
Loading
Personal Weather Stations






























Interactive Weather Map New forecast layout! Learn more

10-Day Weather Forecast

Advertisements
Track Severe Weather on mobile